Aérodrome :
LOGIN :

S'inscrire | Disclaimer

   EN    FR    IT 

 










Légende :    VFR   VFR Marginal   IFR   IFR Intensif   IFR Très Intensif
Visi : 
Plafond : 
>= 8 km
>= 3000ft
5 à 8 km
1000 à 3000 ft
1500m à 5 km
500 à 1000 ft
800 à 1500m
200 à 500 ft
< 800m
< 200 ft
Symboles :   Orages  Brouillard  Fortes neiges  Fortes précipitations  Vent > 20 kt
SIGMETs :   Divers  Orages  Givrage  Turbulence  Onde Orograph.  Cendres Volcan.






- Altitude de l'aérodrome : 121 ft
- Code IATA : HUY


EGNJ - Humberside

DERNIER METAR :
  • 160850Z 16013KT 5000 -RADZ SCT007 BKN009 BKN015 13/13 Q0999

METARs EXPIRÉS :
  • 160820Z 15012KT 6000 -RA SCT006 SCT008 BKN017 13/12 Q0999
  • 160750Z 16012KT 6000 -RA SCT009 BKN017 13/12 Q0999
  • 160720Z 16012KT 9999 SCT011 BKN028 13/11 Q0999
  • 160650Z 16013KT 9999 FEW030 13/11 Q0999
  • 160620Z 16012KT 9999 FEW048 12/11 Q0999

TAF TAF EGNJ
Valide du 16 à 09h jusqu'au 16 à 18h UTC


160759Z 1609/1618 18012KT 9999 SCT025
TEMPO 1609/1612 6000 RA BKN008
PROB30
TEMPO 1609/1612 2000 RADZ BKN002
BECMG 1610/1613 27012KT
ATIS : +44 1652 682 020



MET'MAP, la Météo Aéronautique d'un coup d'oeil ! - Copyright ORBIFLY Décembre 2007 - Disclaimer

ORBIFLY MET'MAP TEAM :

Programmation & Développement : Alexandra Zaïnal
Conception & Développement : Baudouin d'Aumeries
Co-Programmation & Développement : Marc-Olivier Méhu
Soutien technique & logistique : Manuel Goepfert

Contact : metmap@orbifly.com




SOURCES & CREDITS :

   NOAA